Terminal Aerodrome Forecast
Issued by NWS

Home | Current Version | Previous Version | Text Only | Print | Product List | Glossary On
Versions: 1 2 3 4 5 6 7 8 9 10 11 12 13 14 15 16 17 18
688
FTUS46 KPDT 080536
TAFDLS
TAF
KDLS 080536Z 0806/0906 11005KT P6SM SCT200
     FM081000 11005KT P6SM SCT015 SCT200
     FM081800 12006KT P6SM SCT200=

USA.gov is the U.S. government's official web portal to all federal, state and local government web resources and services.